createdAt,value
2023-05-25T00:01:03.482Z,86.64
2023-05-25T00:03:36.430Z,86.38
2023-05-25T00:06:10.567Z,86.62
2023-05-25T00:08:42.759Z,86.90
2023-05-25T00:11:17.229Z,87.31
2023-05-25T00:13:50.675Z,87.53
2023-05-25T00:16:27.165Z,86.77
2023-05-25T00:18:59.286Z,86.68
2023-05-25T00:21:34.383Z,87.13
2023-05-25T00:24:07.073Z,87.15
2023-05-25T00:26:39.227Z,86.75
2023-05-25T00:29:11.380Z,87.03
2023-05-25T00:31:43.689Z,87.20
2023-05-25T00:34:16.227Z,87.45
2023-05-25T00:36:48.675Z,87.19
2023-05-25T00:39:21.246Z,87.30
2023-05-25T00:41:54.966Z,87.24
2023-05-25T00:44:28.460Z,87.79
2023-05-25T00:47:04.597Z,87.95
2023-05-25T00:49:37.107Z,88.10
2023-05-25T00:52:15.714Z,87.86
2023-05-25T00:54:52.457Z,87.62
2023-05-25T00:57:27.874Z,87.68
2023-05-25T01:00:01.579Z,87.89
2023-05-25T01:02:34.059Z,88.06
2023-05-25T01:05:09.799Z,88.91
2023-05-25T01:07:44.590Z,88.46
2023-05-25T01:10:17.817Z,88.82
2023-05-25T01:12:51.542Z,88.86
2023-05-25T01:15:24.290Z,88.58
2023-05-25T01:17:59.680Z,88.59
2023-05-25T01:20:32.172Z,88.61
2023-05-25T01:23:14.172Z,88.52
2023-05-25T01:25:52.430Z,88.84
2023-05-25T01:28:40.480Z,88.43
2023-05-25T01:31:16.384Z,89.02
2023-05-25T01:33:51.792Z,89.04
2023-05-25T01:36:23.946Z,89.30
2023-05-25T01:38:56.357Z,89.34
2023-05-25T01:41:28.553Z,89.20
2023-05-25T01:44:01.093Z,89.39
2023-05-25T01:46:39.837Z,89.30
2023-05-25T01:49:27.873Z,89.39
2023-05-25T01:52:21.048Z,90.08
2023-05-25T01:55:04.129Z,89.42
2023-05-25T01:57:39.163Z,88.89
2023-05-25T02:00:13.840Z,89.33
2023-05-25T02:02:48.219Z,89.74
2023-05-25T02:05:21.461Z,89.68
2023-05-25T02:07:53.922Z,89.75
2023-05-25T02:10:26.039Z,90.15
2023-05-25T02:12:58.113Z,89.54
2023-05-25T02:15:33.546Z,89.65
2023-05-25T02:18:05.970Z,89.49
2023-05-25T02:20:38.294Z,89.52
2023-05-25T02:23:10.916Z,90.65
2023-05-25T02:25:43.428Z,89.66
2023-05-25T02:28:15.831Z,90.11
2023-05-25T02:30:47.932Z,90.92
2023-05-25T02:33:20.467Z,90.98
2023-05-25T02:35:52.578Z,90.62
2023-05-25T02:38:24.721Z,90.88
2023-05-25T02:40:57.508Z,90.41
2023-05-25T02:43:29.663Z,89.83
2023-05-25T02:46:01.809Z,90.30
2023-05-25T02:48:34.186Z,91.27
2023-05-25T02:51:06.494Z,91.20
2023-05-25T02:53:39.097Z,90.29
2023-05-25T02:56:11.406Z,90.68
2023-05-25T02:58:43.589Z,91.31
2023-05-25T03:01:20.512Z,90.80
2023-05-25T03:03:52.803Z,91.30
2023-05-25T03:06:28.226Z,91.58
2023-05-25T03:09:00.545Z,91.44
2023-05-25T03:11:32.749Z,91.97
2023-05-25T03:14:04.902Z,92.29
2023-05-25T03:16:39.259Z,92.78
2023-05-25T03:19:12.292Z,93.17
2023-05-25T03:21:44.455Z,93.52
2023-05-25T03:24:16.554Z,94.15
2023-05-25T03:26:48.706Z,94.03
2023-05-25T03:29:23.580Z,94.12
2023-05-25T03:31:56.106Z,94.27
2023-05-25T03:34:29.999Z,94.01
2023-05-25T03:37:02.266Z,93.64
2023-05-25T03:39:34.405Z,93.52
2023-05-25T03:42:07.421Z,94.27
2023-05-25T03:44:41.326Z,94.47
2023-05-25T03:47:13.775Z,94.58
2023-05-25T03:49:46.122Z,94.96
2023-05-25T03:52:18.259Z,94.99
2023-05-25T03:54:50.337Z,95.76
2023-05-25T03:57:22.466Z,96.32
2023-05-25T03:59:54.988Z,95.98
2023-05-25T04:02:27.206Z,96.12
2023-05-25T04:05:00.178Z,96.13
2023-05-25T04:07:32.517Z,96.66
2023-05-25T04:10:05.412Z,97.09
2023-05-25T04:12:37.617Z,96.74
2023-05-25T04:15:10.221Z,96.99
2023-05-25T04:17:42.405Z,97.14
2023-05-25T04:20:14.584Z,97.37
2023-05-25T04:22:47.841Z,96.42
2023-05-25T04:25:20.168Z,96.86
2023-05-25T04:27:53.730Z,97.13
2023-05-25T04:30:25.822Z,97.17
2023-05-25T04:33:02.845Z,96.29
2023-05-25T04:35:36.880Z,95.87
2023-05-25T04:38:09.045Z,95.29
2023-05-25T04:40:41.996Z,96.10
2023-05-25T04:43:18.367Z,96.23
2023-05-25T04:45:51.593Z,95.83
2023-05-25T04:48:24.866Z,95.76
2023-05-25T04:50:57.560Z,96.08
2023-05-25T04:53:30.247Z,96.09
2023-05-25T04:56:02.570Z,95.25
2023-05-25T04:58:34.735Z,94.72
2023-05-25T05:01:06.873Z,94.74
2023-05-25T05:03:39.160Z,93.77
2023-05-25T05:06:11.276Z,94.47
2023-05-25T05:08:43.495Z,94.67
2023-05-25T05:11:15.898Z,93.47
2023-05-25T05:13:48.013Z,92.61
2023-05-25T05:16:23.469Z,92.48
2023-05-25T05:18:55.851Z,91.69
2023-05-25T05:21:28.223Z,91.84
2023-05-25T05:24:00.524Z,92.05
2023-05-25T05:26:41.208Z,91.63
2023-05-25T05:29:24.792Z,91.91
2023-05-25T05:31:56.970Z,90.46
2023-05-25T05:34:29.205Z,90.33
2023-05-25T05:37:01.334Z,90.18
2023-05-25T05:39:33.504Z,88.97
2023-05-25T05:42:06.654Z,88.68
2023-05-25T05:44:38.991Z,89.08
2023-05-25T05:47:11.168Z,88.65
2023-05-25T05:49:43.244Z,88.78
2023-05-25T05:52:16.011Z,89.02
2023-05-25T05:54:48.218Z,89.65
2023-05-25T05:57:20.307Z,89.25
2023-05-25T05:59:52.516Z,88.93
2023-05-25T06:02:24.914Z,89.75
2023-05-25T06:04:57.400Z,89.22
2023-05-25T06:07:31.055Z,88.26
2023-05-25T06:10:03.315Z,88.11
2023-05-25T06:12:35.437Z,87.19
2023-05-25T06:15:08.991Z,87.34
2023-05-25T06:17:42.064Z,85.31
2023-05-25T06:20:15.281Z,85.70
2023-05-25T06:22:47.516Z,84.06
2023-05-25T06:25:20.576Z,84.12
2023-05-25T06:27:52.732Z,84.34
2023-05-25T06:30:24.866Z,84.40
2023-05-25T06:32:57.709Z,84.13
2023-05-25T06:35:30.223Z,83.67
2023-05-25T06:38:03.113Z,83.20
2023-05-25T06:40:35.233Z,82.40
2023-05-25T06:43:07.573Z,82.60
2023-05-25T06:45:39.719Z,81.84
2023-05-25T06:48:11.882Z,82.00
2023-05-25T06:50:44.136Z,81.92
2023-05-25T06:53:17.327Z,80.44
2023-05-25T06:55:49.610Z,80.86
2023-05-25T06:58:21.744Z,80.84
2023-05-25T07:00:53.967Z,80.80
2023-05-25T07:03:26.298Z,79.79
2023-05-25T07:05:59.205Z,79.79
2023-05-25T07:08:31.664Z,79.73
2023-05-25T07:11:04.004Z,78.28
2023-05-25T07:13:36.246Z,77.21
2023-05-25T07:16:08.399Z,77.15
2023-05-25T07:18:41.272Z,75.48
2023-05-25T07:21:13.472Z,76.19
2023-05-25T07:23:45.570Z,75.72
2023-05-25T07:26:17.852Z,74.40
2023-05-25T07:28:50.020Z,73.99
2023-05-25T07:31:22.666Z,74.06
2023-05-25T07:33:55.861Z,72.25
2023-05-25T07:36:28.194Z,71.77
2023-05-25T07:39:00.334Z,71.67
2023-05-25T07:41:33.846Z,70.28
2023-05-25T07:44:06.026Z,70.41
2023-05-25T07:46:38.202Z,71.58
2023-05-25T07:49:16.056Z,71.41
2023-05-25T07:51:48.292Z,69.25
2023-05-25T07:54:20.461Z,67.32
2023-05-25T07:56:52.742Z,68.15
2023-05-25T07:59:26.989Z,67.58
2023-05-25T08:01:59.113Z,66.75
2023-05-25T08:04:32.054Z,67.27
2023-05-25T08:07:04.647Z,65.44
2023-05-25T08:09:36.796Z,65.69
2023-05-25T08:12:33.734Z,64.40
2023-05-25T08:15:01.057Z,64.19
2023-05-25T08:17:33.178Z,63.70
2023-05-25T08:20:08.804Z,62.03
2023-05-25T08:22:40.962Z,60.89
2023-05-25T08:25:13.076Z,59.86
2023-05-25T08:27:45.481Z,56.82
2023-05-25T08:30:17.655Z,57.88
2023-05-25T08:32:49.849Z,59.80
2023-05-25T08:35:21.971Z,61.76
2023-05-25T08:37:54.083Z,63.09
2023-05-25T08:40:30.918Z,63.76
2023-05-25T08:43:03.113Z,61.12
2023-05-25T08:45:37.075Z,60.74
2023-05-25T08:48:13.922Z,60.29
2023-05-25T08:50:49.559Z,57.46
2023-05-25T08:53:26.350Z,57.70
2023-05-25T08:56:00.169Z,51.96
2023-05-25T08:58:41.168Z,49.86
2023-05-25T09:01:18.673Z,48.66
2023-05-25T09:03:51.766Z,49.47
2023-05-25T09:06:27.199Z,50.15
2023-05-25T09:08:59.301Z,52.51
2023-05-25T09:11:39.679Z,52.07
2023-05-25T09:14:14.037Z,53.22
2023-05-25T09:16:47.932Z,55.23
2023-05-25T09:19:20.618Z,55.61
2023-05-25T09:21:59.651Z,56.32
2023-05-25T09:24:35.701Z,54.14
2023-05-25T09:27:11.975Z,53.93
2023-05-25T09:29:44.318Z,53.34
2023-05-25T09:32:17.823Z,54.90
2023-05-25T09:34:50.096Z,55.59
2023-05-25T09:37:22.297Z,56.32
2023-05-25T09:39:54.509Z,56.58
2023-05-25T09:42:26.862Z,55.27
2023-05-25T09:45:00.594Z,51.88
2023-05-25T09:47:32.874Z,51.03
2023-05-25T09:50:06.569Z,52.64
2023-05-25T09:52:39.783Z,51.28
2023-05-25T09:55:12.902Z,50.42
2023-05-25T09:57:45.064Z,46.02
2023-05-25T10:00:18.456Z,46.60
2023-05-25T10:02:51.738Z,47.26
2023-05-25T10:05:23.881Z,47.68
2023-05-25T10:07:56.484Z,47.53
2023-05-25T10:10:29.756Z,51.07
2023-05-25T10:13:02.264Z,49.54
2023-05-25T10:15:36.708Z,46.11
2023-05-25T10:18:12.414Z,45.43
2023-05-25T10:20:47.455Z,46.52
2023-05-25T10:23:22.076Z,45.32
2023-05-25T10:25:58.134Z,43.78
2023-05-25T10:28:36.542Z,43.57
2023-05-25T10:31:10.786Z,43.71
2023-05-25T10:33:49.032Z,43.41
2023-05-25T10:36:27.349Z,43.17
2023-05-25T10:39:01.035Z,39.94
2023-05-25T10:41:33.146Z,37.75
2023-05-25T10:44:05.520Z,37.49
2023-05-25T10:46:37.847Z,38.97
2023-05-25T10:49:10.971Z,41.05
2023-05-25T10:51:44.067Z,39.44
2023-05-25T10:54:16.232Z,40.64
2023-05-25T10:57:16.435Z,36.47
2023-05-25T10:59:52.625Z,36.65
2023-05-25T11:02:28.035Z,35.06
2023-05-25T11:05:28.034Z,34.58
2023-05-25T11:08:06.441Z,34.40
2023-05-25T11:10:59.425Z,34.84
2023-05-25T11:13:40.936Z,36.22
2023-05-25T11:16:20.659Z,35.79
2023-05-25T11:18:59.212Z,33.87
2023-05-25T11:21:32.465Z,33.13
2023-05-25T11:24:12.493Z,32.93
2023-05-25T11:26:58.478Z,32.91
2023-05-25T11:29:36.378Z,32.78
2023-05-25T11:32:15.628Z,33.05
2023-05-25T11:34:48.796Z,33.34
2023-05-25T11:37:24.973Z,33.18
2023-05-25T11:39:57.137Z,34.17
2023-05-25T11:42:31.150Z,36.35
2023-05-25T11:45:03.732Z,36.53
2023-05-25T11:47:35.980Z,34.85
2023-05-25T11:50:17.556Z,32.81
2023-05-25T11:52:49.767Z,33.93
2023-05-25T11:55:21.957Z,33.44
2023-05-25T11:57:58.361Z,32.58
2023-05-25T12:00:31.719Z,30.88
2023-05-25T12:03:03.952Z,29.50
2023-05-25T12:05:39.787Z,29.29
2023-05-25T12:08:12.188Z,27.79
2023-05-25T12:10:53.425Z,30.17
2023-05-25T12:13:26.417Z,30.13
2023-05-25T12:16:00.504Z,29.26
2023-05-25T12:18:33.387Z,29.05
2023-05-25T12:21:08.569Z,29.91
2023-05-25T12:23:40.875Z,26.79
2023-05-25T12:26:16.474Z,26.54
2023-05-25T12:29:10.375Z,24.27
2023-05-25T12:31:42.538Z,23.91
2023-05-25T12:34:17.485Z,23.26
2023-05-25T12:36:52.093Z,22.10
2023-05-25T12:39:30.165Z,22.53
2023-05-25T12:42:03.595Z,23.18
2023-05-25T12:44:37.588Z,23.68
2023-05-25T12:47:20.144Z,23.03
2023-05-25T12:49:55.081Z,23.26
2023-05-25T12:52:44.842Z,22.13
2023-05-25T12:55:22.619Z,22.14
2023-05-25T12:58:06.950Z,21.66
2023-05-25T13:00:41.265Z,22.53
2023-05-25T13:03:13.781Z,23.29
2023-05-25T13:05:46.770Z,24.19
2023-05-25T13:08:19.019Z,22.74
2023-05-25T13:10:51.715Z,23.45
2023-05-25T13:13:23.831Z,22.91
2023-05-25T13:15:56.015Z,22.59
2023-05-25T13:18:28.151Z,24.12
2023-05-25T13:21:00.780Z,25.43
2023-05-25T13:23:33.193Z,26.62
2023-05-25T13:26:05.347Z,26.66
2023-05-25T13:28:37.462Z,26.12
2023-05-25T13:31:12.442Z,25.32
2023-05-25T13:33:44.572Z,25.82
2023-05-25T13:36:16.682Z,25.19
2023-05-25T13:38:49.289Z,27.87
2023-05-25T13:41:21.795Z,28.22
2023-05-25T13:43:54.004Z,27.78
2023-05-25T13:46:34.753Z,27.92
2023-05-25T13:49:07.448Z,29.16
2023-05-25T13:51:39.588Z,28.26
2023-05-25T13:54:13.002Z,29.50
2023-05-25T13:56:45.100Z,29.05
2023-05-25T13:59:17.219Z,28.09
2023-05-25T14:01:49.529Z,28.30
2023-05-25T14:04:21.760Z,26.99
2023-05-25T14:06:53.889Z,28.14
2023-05-25T14:09:26.184Z,27.55
2023-05-25T14:11:58.255Z,28.20
2023-05-25T14:14:32.652Z,29.03
2023-05-25T14:17:05.186Z,30.43
2023-05-25T14:19:37.940Z,31.54
2023-05-25T14:22:14.207Z,32.39
2023-05-25T14:24:46.765Z,32.97
2023-05-25T14:27:21.344Z,32.41
2023-05-25T14:29:53.515Z,33.09
2023-05-25T14:32:25.710Z,33.54
2023-05-25T14:34:57.935Z,34.60
2023-05-25T14:37:30.021Z,35.52
2023-05-25T14:40:02.279Z,36.09
2023-05-25T14:42:35.152Z,36.60
2023-05-25T14:45:10.713Z,36.86
2023-05-25T14:47:43.494Z,37.53
2023-05-25T14:50:16.931Z,38.72
2023-05-25T14:52:49.049Z,38.60
2023-05-25T14:55:21.305Z,38.77
2023-05-25T14:57:53.459Z,37.56
2023-05-25T15:00:30.501Z,37.25
2023-05-25T15:03:03.035Z,38.38
2023-05-25T15:05:35.322Z,38.90
2023-05-25T15:08:07.473Z,39.63
2023-05-25T15:10:39.676Z,39.53
2023-05-25T15:13:13.298Z,38.89
2023-05-25T15:15:45.854Z,38.20
2023-05-25T15:18:18.159Z,39.11
2023-05-25T15:20:50.338Z,38.48
2023-05-25T15:23:22.447Z,39.13
2023-05-25T15:25:54.613Z,40.45
2023-05-25T15:28:26.712Z,41.24
2023-05-25T15:31:02.341Z,42.36
2023-05-25T15:33:50.177Z,42.32
2023-05-25T15:36:26.185Z,41.78
2023-05-25T15:38:58.487Z,42.50
2023-05-25T15:41:30.705Z,42.54
2023-05-25T15:44:02.878Z,43.13
2023-05-25T15:46:36.229Z,44.28
2023-05-25T15:49:11.667Z,44.27
2023-05-25T15:51:44.678Z,44.24
2023-05-25T15:54:16.890Z,44.76
2023-05-25T15:56:49.029Z,45.67
2023-05-25T15:59:21.189Z,43.49
2023-05-25T16:01:53.339Z,44.53
2023-05-25T16:04:25.546Z,43.97
2023-05-25T16:06:59.408Z,44.33
2023-05-25T16:09:32.205Z,43.71
2023-05-25T16:12:04.472Z,43.61
2023-05-25T16:14:36.756Z,44.23
2023-05-25T16:17:09.085Z,45.96
2023-05-25T16:19:41.310Z,44.90
2023-05-25T16:22:13.503Z,46.33
2023-05-25T16:24:45.744Z,45.48
2023-05-25T16:27:18.031Z,46.44
2023-05-25T16:29:50.227Z,47.42
2023-05-25T16:32:22.382Z,46.42
2023-05-25T16:34:54.567Z,46.89
2023-05-25T16:37:27.572Z,48.77
2023-05-25T16:39:59.736Z,48.30
2023-05-25T16:42:31.883Z,48.33
2023-05-25T16:45:04.390Z,47.88
2023-05-25T16:47:36.509Z,48.99
2023-05-25T16:50:09.254Z,48.31
2023-05-25T16:52:41.890Z,47.59
2023-05-25T16:55:16.423Z,48.61
2023-05-25T16:57:48.713Z,48.18
2023-05-25T17:00:21.365Z,48.46
2023-05-25T17:02:53.610Z,48.73
2023-05-25T17:05:25.892Z,48.35
2023-05-25T17:07:58.047Z,47.58
2023-05-25T17:10:30.139Z,47.16
2023-05-25T17:13:02.324Z,48.22
2023-05-25T17:15:34.459Z,48.99
2023-05-25T17:18:06.936Z,49.86
2023-05-25T17:20:40.752Z,50.57
2023-05-25T17:23:13.006Z,50.17
2023-05-25T17:25:45.364Z,49.98
2023-05-25T17:28:17.703Z,51.42
2023-05-25T17:30:49.824Z,51.39
2023-05-25T17:33:21.921Z,51.55
2023-05-25T17:35:54.175Z,52.00
2023-05-25T17:38:27.803Z,51.03
2023-05-25T17:41:01.506Z,50.91
2023-05-25T17:43:33.727Z,52.42
2023-05-25T17:46:06.682Z,53.13
2023-05-25T17:48:38.856Z,53.30
2023-05-25T17:51:11.290Z,55.01
2023-05-25T17:53:43.509Z,55.36
2023-05-25T17:56:16.027Z,55.60
2023-05-25T17:58:48.137Z,55.35
2023-05-25T18:01:20.420Z,56.47
2023-05-25T18:03:54.160Z,55.91
2023-05-25T18:06:29.108Z,55.85
2023-05-25T18:09:01.463Z,57.36
2023-05-25T18:11:33.828Z,57.45
2023-05-25T18:14:05.931Z,57.50
2023-05-25T18:16:39.875Z,58.33
2023-05-25T18:19:12.201Z,57.97
2023-05-25T18:21:44.324Z,58.44
2023-05-25T18:24:16.532Z,58.16
2023-05-25T18:26:48.608Z,58.21
2023-05-25T18:29:20.930Z,58.05
2023-05-25T18:31:53.090Z,58.74
2023-05-25T18:34:25.635Z,58.95
2023-05-25T18:36:57.713Z,59.83
2023-05-25T18:39:29.988Z,60.94
2023-05-25T18:42:02.769Z,60.12
2023-05-25T18:44:36.498Z,60.83
2023-05-25T18:47:08.657Z,61.61
2023-05-25T18:49:41.134Z,61.54
2023-05-25T18:52:13.600Z,62.24
2023-05-25T18:54:46.538Z,61.76
2023-05-25T18:57:18.825Z,61.92
2023-05-25T18:59:51.067Z,62.89
2023-05-25T19:02:23.385Z,63.41
2023-05-25T19:04:55.648Z,63.36
2023-05-25T19:07:27.823Z,63.68
2023-05-25T19:10:00.057Z,64.13
2023-05-25T19:12:32.231Z,65.09
2023-05-25T19:15:05.399Z,65.77
2023-05-25T19:17:37.671Z,65.81
2023-05-25T19:20:10.280Z,65.91
2023-05-25T19:22:42.699Z,66.36
2023-05-25T19:25:15.006Z,67.08
2023-05-25T19:27:47.148Z,67.39
2023-05-25T19:30:19.733Z,67.21
2023-05-25T19:32:51.904Z,67.67
2023-05-25T19:35:24.082Z,68.51
2023-05-25T19:37:56.223Z,68.77
2023-05-25T19:40:39.276Z,69.25
2023-05-25T19:43:12.058Z,69.31
2023-05-25T19:45:49.717Z,69.77
2023-05-25T19:48:27.205Z,70.06
2023-05-25T19:51:01.374Z,69.94
2023-05-25T19:53:40.925Z,70.34
2023-05-25T19:56:14.643Z,70.45
2023-05-25T19:58:46.974Z,70.97
2023-05-25T20:01:19.412Z,71.00
2023-05-25T20:03:51.789Z,71.08
2023-05-25T20:06:24.686Z,71.11
2023-05-25T20:08:56.907Z,71.57
2023-05-25T20:11:29.880Z,71.71
2023-05-25T20:14:02.752Z,71.65
2023-05-25T20:16:35.437Z,71.71
2023-05-25T20:19:11.180Z,72.15
2023-05-25T20:21:43.419Z,71.91
2023-05-25T20:24:15.711Z,71.97
2023-05-25T20:26:47.991Z,72.05
2023-05-25T20:29:20.292Z,72.51
2023-05-25T20:31:53.560Z,72.53
2023-05-25T20:34:26.308Z,72.46
2023-05-25T20:36:58.613Z,72.50
2023-05-25T20:39:30.938Z,72.65
2023-05-25T20:42:03.334Z,72.47
2023-05-25T20:44:35.720Z,72.52
2023-05-25T20:47:10.794Z,72.31
2023-05-25T20:49:43.060Z,71.70
2023-05-25T20:52:24.204Z,71.95
2023-05-25T20:54:56.496Z,72.15
2023-05-25T20:57:30.121Z,72.26
2023-05-25T21:00:03.302Z,71.87
2023-05-25T21:02:35.615Z,72.61
2023-05-25T21:05:08.307Z,72.47
2023-05-25T21:07:41.370Z,72.42
2023-05-25T21:10:13.699Z,72.18
2023-05-25T21:12:46.265Z,71.91
2023-05-25T21:15:18.541Z,72.29
2023-05-25T21:17:51.094Z,72.43
2023-05-25T21:20:23.572Z,72.41
2023-05-25T21:22:56.064Z,72.51
2023-05-25T21:25:31.626Z,73.22
2023-05-25T21:28:04.053Z,73.21
2023-05-25T21:30:36.506Z,72.91
2023-05-25T21:33:08.950Z,73.00
2023-05-25T21:35:41.213Z,73.82
2023-05-25T21:38:14.252Z,74.05
2023-05-25T21:40:46.583Z,74.30
2023-05-25T21:43:19.029Z,74.61
2023-05-25T21:45:51.613Z,74.83
2023-05-25T21:48:25.503Z,74.83
2023-05-25T21:50:57.991Z,75.07
2023-05-25T21:53:30.260Z,75.11
2023-05-25T21:56:02.776Z,75.32
2023-05-25T21:58:35.120Z,75.38
2023-05-25T22:01:10.535Z,75.50
2023-05-25T22:03:42.960Z,76.23
2023-05-25T22:06:15.516Z,76.87
2023-05-25T22:08:50.578Z,76.92
2023-05-25T22:11:26.141Z,77.01
2023-05-25T22:13:58.406Z,77.35
2023-05-25T22:16:30.923Z,77.43
2023-05-25T22:19:05.454Z,77.86
2023-05-25T22:21:38.139Z,77.81
2023-05-25T22:24:10.417Z,77.84
2023-05-25T22:26:42.678Z,78.06
2023-05-25T22:29:15.101Z,78.49
2023-05-25T22:31:47.361Z,79.04
2023-05-25T22:34:19.692Z,79.21
2023-05-25T22:36:52.081Z,79.39
2023-05-25T22:39:24.392Z,78.98
2023-05-25T22:41:56.617Z,79.41
2023-05-25T22:44:28.967Z,80.02
2023-05-25T22:47:01.342Z,80.37
2023-05-25T22:49:41.154Z,79.87
2023-05-25T22:52:16.227Z,80.09
2023-05-25T22:54:48.565Z,80.30
2023-05-25T22:57:20.838Z,80.07
2023-05-25T22:59:53.089Z,80.60
2023-05-25T23:02:25.874Z,80.61
2023-05-25T23:04:58.301Z,80.80
2023-05-25T23:07:31.514Z,80.95
2023-05-25T23:10:04.451Z,81.08
2023-05-25T23:12:36.651Z,81.42
2023-05-25T23:15:09.793Z,81.54
2023-05-25T23:17:41.998Z,82.06
2023-05-25T23:20:14.422Z,81.91
2023-05-25T23:22:46.642Z,82.35
2023-05-25T23:25:18.850Z,82.42
2023-05-25T23:27:51.181Z,82.36
2023-05-25T23:30:24.072Z,82.79
2023-05-25T23:32:56.285Z,82.73
2023-05-25T23:35:28.905Z,82.78
2023-05-25T23:38:02.035Z,83.16
2023-05-25T23:40:34.231Z,82.84
2023-05-25T23:43:06.674Z,83.09
2023-05-25T23:45:39.517Z,83.17
2023-05-25T23:48:11.753Z,83.12
2023-05-25T23:50:43.979Z,83.13
2023-05-25T23:53:16.152Z,83.25
2023-05-25T23:55:48.325Z,83.35
2023-05-25T23:58:20.475Z,83.37
